createdAt,value
2017-08-15T00:01:48.302Z,22.27
2017-08-15T00:06:51.007Z,22.28
2017-08-15T00:11:52.943Z,22.36
2017-08-15T00:16:54.868Z,22.37
2017-08-15T00:21:56.867Z,22.29
2017-08-15T00:26:58.804Z,22.27
2017-08-15T00:32:00.760Z,22.21
2017-08-15T00:37:02.704Z,22.22
2017-08-15T00:42:04.660Z,22.38
2017-08-15T00:47:06.689Z,22.46
2017-08-15T00:52:08.654Z,22.37
2017-08-15T00:57:10.617Z,22.34
2017-08-15T01:02:13.229Z,22.22
2017-08-15T01:07:15.428Z,22.18
2017-08-15T01:12:18.011Z,22.17
2017-08-15T01:17:20.630Z,22.11
2017-08-15T01:22:22.669Z,22.19
2017-08-15T01:27:24.647Z,22.14
2017-08-15T01:32:27.185Z,22.24
2017-08-15T01:42:59.064Z,22.21
2017-08-15T01:48:01.557Z,22.20
2017-08-15T01:53:03.647Z,22.33
2017-08-15T01:58:06.215Z,22.37
2017-08-15T02:03:08.338Z,22.35
2017-08-15T02:08:11.200Z,22.34
2017-08-15T02:13:13.798Z,22.35
2017-08-15T02:18:16.257Z,22.25
2017-08-15T02:23:18.187Z,22.15
2017-08-15T02:28:20.115Z,22.00
2017-08-15T02:33:22.089Z,21.88
2017-08-15T02:38:24.025Z,21.76
2017-08-15T02:43:25.967Z,21.73
2017-08-15T02:48:28.009Z,21.72
2017-08-15T02:53:29.987Z,21.59
2017-08-15T02:58:31.916Z,21.52
2017-08-15T03:03:33.832Z,21.42
2017-08-15T03:08:35.782Z,21.45
2017-08-15T03:13:37.746Z,21.11
2017-08-15T03:18:39.711Z,20.99
2017-08-15T03:23:41.655Z,20.91
2017-08-15T03:28:43.596Z,20.85
2017-08-15T03:33:45.549Z,20.87
2017-08-15T03:38:47.473Z,20.99
2017-08-15T03:43:49.399Z,20.72
2017-08-15T03:48:52.059Z,20.65
2017-08-15T03:53:54.207Z,20.79
2017-08-15T03:59:02.310Z,20.85
2017-08-15T04:04:07.708Z,20.77
2017-08-15T04:09:09.715Z,20.72
2017-08-15T04:14:11.715Z,20.74
2017-08-15T04:19:14.613Z,20.73
2017-08-15T04:24:17.287Z,20.63
2017-08-15T04:29:19.314Z,20.50
2017-08-15T04:34:22.132Z,20.21
2017-08-15T04:39:24.292Z,20.32
2017-08-15T04:44:26.287Z,20.51
2017-08-15T04:49:31.215Z,20.45
2017-08-15T04:54:34.014Z,20.53
2017-08-15T04:59:35.932Z,20.45
2017-08-15T05:04:37.945Z,20.31
2017-08-15T05:09:40.548Z,20.48
2017-08-15T05:14:45.703Z,20.24
2017-08-15T05:20:02.787Z,20.39
2017-08-15T05:25:04.707Z,20.49
2017-08-15T05:30:06.631Z,20.53
2017-08-15T05:35:08.571Z,20.99
2017-08-15T05:40:11.284Z,21.33
2017-08-15T05:45:13.237Z,21.67
2017-08-15T05:50:15.241Z,21.92
2017-08-15T05:55:17.179Z,22.18
2017-08-15T06:00:19.204Z,22.40
2017-08-15T06:05:21.309Z,22.49
2017-08-15T06:10:23.334Z,22.77
2017-08-15T06:15:26.017Z,22.97
2017-08-15T06:20:28.348Z,23.28
2017-08-15T06:25:30.273Z,23.50
2017-08-15T06:30:32.207Z,23.68
2017-08-15T06:35:34.202Z,23.88
2017-08-15T06:40:36.201Z,24.00
2017-08-15T06:45:38.313Z,24.12
2017-08-15T06:50:40.310Z,24.28
2017-08-15T06:55:42.673Z,24.34
2017-08-15T07:00:44.596Z,24.60
2017-08-15T07:05:47.060Z,24.74
2017-08-15T07:10:49.151Z,24.92
2017-08-15T07:15:51.203Z,24.98
2017-08-15T07:20:53.191Z,25.08
2017-08-15T07:25:55.163Z,25.23
2017-08-15T07:30:57.180Z,25.31
2017-08-15T07:35:59.152Z,25.56
2017-08-15T07:41:01.124Z,25.76
2017-08-15T07:46:03.875Z,25.98
2017-08-15T07:51:05.822Z,26.25
2017-08-15T07:56:07.759Z,26.51
2017-08-15T08:01:09.752Z,26.77
2017-08-15T08:06:12.450Z,26.76
2017-08-15T08:11:14.424Z,26.92
2017-08-15T08:16:16.392Z,27.22
2017-08-15T08:21:18.343Z,27.30
2017-08-15T08:26:20.371Z,27.39
2017-08-15T08:31:22.359Z,27.60
2017-08-15T08:36:24.349Z,27.76
2017-08-15T08:41:26.317Z,27.96
2017-08-15T08:46:28.320Z,28.13
2017-08-15T08:51:30.333Z,28.22
2017-08-15T08:56:32.258Z,28.26
2017-08-15T09:01:34.234Z,28.24
2017-08-15T09:06:36.177Z,28.37
2017-08-15T09:11:38.167Z,28.59
2017-08-15T09:16:40.105Z,28.88
2017-08-15T09:21:42.212Z,29.03
2017-08-15T09:26:44.190Z,29.40
2017-08-15T09:31:46.125Z,30.33
2017-08-15T09:36:48.829Z,30.89
2017-08-15T09:41:50.786Z,31.10
2017-08-15T09:46:52.863Z,31.00
2017-08-15T09:51:54.822Z,30.70
2017-08-15T09:56:56.777Z,30.70
2017-08-15T10:01:58.840Z,30.63
2017-08-15T10:07:01.590Z,30.89
2017-08-15T10:12:03.640Z,31.20
2017-08-15T10:17:06.418Z,31.43
2017-08-15T10:22:09.507Z,31.65
2017-08-15T10:27:11.487Z,31.61
2017-08-15T10:32:13.465Z,31.79
2017-08-15T10:37:15.398Z,32.01
2017-08-15T10:42:17.412Z,32.12
2017-08-15T10:47:19.349Z,32.23
2017-08-15T10:52:21.324Z,32.18
2017-08-15T10:57:23.385Z,32.24
2017-08-15T11:02:25.305Z,32.32
2017-08-15T11:07:27.244Z,32.28
2017-08-15T11:12:29.188Z,32.58
2017-08-15T11:17:31.151Z,32.84
2017-08-15T11:22:33.096Z,32.92
2017-08-15T11:27:35.053Z,33.07
2017-08-15T11:32:38.484Z,33.19
2017-08-15T11:37:40.507Z,33.27
2017-08-15T11:42:42.575Z,33.41
2017-08-15T11:47:44.556Z,33.40
2017-08-15T11:52:46.693Z,33.55
2017-08-15T11:57:49.005Z,33.76
2017-08-15T12:02:51.012Z,33.75
2017-08-15T12:07:52.979Z,33.55
2017-08-15T12:12:54.951Z,33.83
2017-08-15T12:17:56.927Z,33.57
2017-08-15T12:22:58.956Z,33.53
2017-08-15T12:28:00.935Z,33.46
2017-08-15T12:33:02.896Z,33.50
2017-08-15T12:38:04.887Z,33.45
2017-08-15T12:43:06.844Z,33.16
2017-08-15T12:48:08.771Z,33.25
2017-08-15T12:53:10.790Z,33.61
2017-08-15T12:58:12.719Z,34.27
2017-08-15T13:03:14.688Z,34.34
2017-08-15T13:08:17.495Z,34.20
2017-08-15T13:13:19.456Z,34.05
2017-08-15T13:18:21.508Z,33.96
2017-08-15T13:23:28.255Z,33.94
2017-08-15T13:28:30.356Z,33.75
2017-08-15T13:33:32.604Z,33.59
2017-08-15T13:38:34.667Z,33.44
2017-08-15T13:43:36.654Z,33.85
2017-08-15T13:48:38.647Z,34.29
2017-08-15T13:53:41.549Z,34.29
2017-08-15T13:58:43.561Z,34.12
2017-08-15T14:03:45.527Z,33.96
2017-08-15T14:08:47.511Z,34.12
2017-08-15T14:13:49.537Z,34.06
2017-08-15T14:18:51.494Z,33.85
2017-08-15T14:23:53.864Z,33.56
2017-08-15T14:28:55.824Z,33.68
2017-08-15T14:33:57.803Z,33.72
2017-08-15T14:38:59.868Z,33.82
2017-08-15T14:44:02.641Z,33.93
2017-08-15T14:49:04.597Z,33.92
2017-08-15T14:54:06.608Z,34.00
2017-08-15T14:59:08.608Z,33.90
2017-08-15T15:04:10.639Z,33.77
2017-08-15T15:09:12.651Z,33.54
2017-08-15T15:14:14.662Z,33.59
2017-08-15T15:19:18.997Z,33.66
2017-08-15T15:24:21.044Z,33.49
2017-08-15T15:29:23.345Z,33.38
2017-08-15T15:34:25.554Z,33.37
2017-08-15T15:39:28.772Z,33.59
2017-08-15T15:44:30.898Z,33.54
2017-08-15T15:49:33.852Z,33.28
2017-08-15T15:54:35.866Z,33.00
2017-08-15T15:59:37.873Z,32.78
2017-08-15T16:04:39.832Z,32.72
2017-08-15T16:09:41.815Z,32.57
2017-08-15T16:14:43.806Z,32.45
2017-08-15T16:19:45.852Z,32.48
2017-08-15T16:24:47.933Z,32.53
2017-08-15T16:29:50.827Z,32.26
2017-08-15T16:34:54.511Z,32.01
2017-08-15T16:39:56.594Z,31.00
2017-08-15T16:44:58.593Z,30.43
2017-08-15T16:50:00.597Z,30.02
2017-08-15T16:55:02.696Z,29.67
2017-08-15T17:00:04.669Z,29.53
2017-08-15T17:05:06.639Z,29.41
2017-08-15T17:10:08.622Z,29.27
2017-08-15T17:15:10.628Z,29.26
2017-08-15T17:20:12.583Z,29.42
2017-08-15T17:25:14.695Z,29.52
2017-08-15T17:30:16.749Z,29.52
2017-08-15T17:35:19.171Z,29.50
2017-08-15T17:40:21.675Z,29.51
2017-08-15T17:45:24.002Z,29.35
2017-08-15T17:50:26.024Z,29.16
2017-08-15T17:55:27.972Z,29.00
2017-08-15T18:00:29.992Z,28.79
2017-08-15T18:05:31.952Z,28.55
2017-08-15T18:10:33.932Z,28.34
2017-08-15T18:15:35.916Z,28.25
2017-08-15T18:20:37.874Z,28.10
2017-08-15T18:25:39.845Z,27.99
2017-08-15T18:30:41.782Z,28.06
2017-08-15T18:35:43.777Z,27.96
2017-08-15T18:40:45.909Z,27.99
2017-08-15T18:45:47.884Z,26.85
2017-08-15T18:50:49.863Z,26.14
2017-08-15T18:55:51.854Z,25.80
2017-08-15T19:00:54.054Z,25.37
2017-08-15T19:05:58.067Z,25.08
2017-08-15T19:11:00.045Z,24.35
2017-08-15T19:16:02.134Z,23.77
2017-08-15T19:21:04.310Z,23.68
2017-08-15T19:26:06.321Z,23.45
2017-08-15T19:31:08.269Z,23.10
2017-08-15T19:36:10.299Z,23.23
2017-08-15T19:41:12.291Z,23.20
2017-08-15T19:46:21.080Z,23.54
2017-08-15T19:51:23.132Z,23.69
2017-08-15T19:56:25.291Z,23.83
2017-08-15T20:01:27.341Z,23.91
2017-08-15T20:06:29.508Z,23.92
2017-08-15T20:11:31.562Z,23.92
2017-08-15T20:16:33.563Z,23.87
2017-08-15T20:21:35.507Z,23.84
2017-08-15T20:26:38.205Z,23.75
2017-08-15T20:31:40.268Z,23.72
2017-08-15T20:36:42.210Z,23.72
2017-08-15T20:41:44.275Z,23.68
2017-08-15T20:46:46.272Z,23.41
2017-08-15T20:51:48.315Z,23.12
2017-08-15T20:56:50.348Z,23.08
2017-08-15T21:01:52.392Z,23.12
2017-08-15T21:06:54.378Z,23.35
2017-08-15T21:11:56.331Z,23.20
2017-08-15T21:16:58.246Z,23.15
2017-08-15T21:22:00.203Z,23.22
2017-08-15T21:27:02.878Z,23.28
2017-08-15T21:32:04.813Z,23.35
2017-08-15T21:37:06.773Z,23.48
2017-08-15T21:42:08.716Z,23.58
2017-08-15T21:47:11.435Z,23.58
2017-08-15T21:52:13.562Z,23.64
2017-08-15T21:57:15.584Z,23.70
2017-08-15T22:02:20.455Z,23.75
2017-08-15T22:07:22.380Z,23.67
2017-08-15T22:12:24.315Z,23.52
2017-08-15T22:17:26.231Z,23.25
2017-08-15T22:22:28.190Z,23.16
2017-08-15T22:27:30.132Z,23.44
2017-08-15T22:32:32.068Z,23.40
2017-08-15T22:37:34.784Z,23.54
2017-08-15T22:42:36.782Z,23.50
2017-08-15T22:47:39.448Z,23.59
2017-08-15T22:52:41.409Z,23.75
2017-08-15T22:57:43.380Z,23.82
2017-08-15T23:02:45.419Z,23.84
2017-08-15T23:07:47.371Z,23.85
2017-08-15T23:12:49.372Z,23.82
2017-08-15T23:17:52.066Z,23.78
2017-08-15T23:22:54.005Z,23.76
2017-08-15T23:27:56.663Z,23.80
2017-08-15T23:32:58.853Z,23.79
2017-08-15T23:38:01.162Z,23.78
2017-08-15T23:43:04.181Z,23.74
2017-08-15T23:48:06.402Z,23.76
2017-08-15T23:53:09.097Z,23.62
2017-08-15T23:58:11.067Z,23.55
